createdAt,value
2018-04-22T00:00:27.519Z,19.42
2018-04-22T00:03:08.042Z,34.25
2018-04-22T00:05:37.021Z,30.12
2018-04-22T00:08:05.472Z,34.95
2018-04-22T00:10:33.858Z,29.95
2018-04-22T00:13:12.024Z,23.73
2018-04-22T00:15:56.220Z,21.98
2018-04-22T00:18:37.988Z,25.75
2018-04-22T00:21:09.130Z,30.90
2018-04-22T00:23:41.577Z,28.58
2018-04-22T00:26:13.508Z,35.97
2018-04-22T00:28:43.074Z,34.92
2018-04-22T00:31:11.463Z,32.95
2018-04-22T00:33:39.851Z,25.98
2018-04-22T00:36:08.253Z,23.50
2018-04-22T00:38:36.631Z,31.50
2018-04-22T00:41:05.039Z,25.52
2018-04-22T00:43:33.488Z,31.70
2018-04-22T00:46:02.129Z,47.95
2018-04-22T00:48:30.505Z,48.25
2018-04-22T00:50:58.895Z,62.75
2018-04-22T00:53:27.326Z,50.60
2018-04-22T00:55:56.492Z,49.83
2018-04-22T00:58:24.902Z,39.45
2018-04-22T01:00:54.049Z,62.35
2018-04-22T01:03:22.620Z,35.05
2018-04-22T01:05:50.997Z,38.88
2018-04-22T01:08:19.374Z,35.60
2018-04-22T01:10:47.780Z,29.58
2018-04-22T01:13:16.152Z,42.25
2018-04-22T01:15:44.556Z,31.23
2018-04-22T01:18:12.951Z,48.63
2018-04-22T01:20:42.121Z,39.10
2018-04-22T01:23:10.500Z,34.45
2018-04-22T01:25:38.880Z,36.17
2018-04-22T01:28:08.048Z,31.67
2018-04-22T01:30:36.433Z,27.05
2018-04-22T01:33:04.833Z,32.60
2018-04-22T01:35:33.295Z,29.52
2018-04-22T01:38:01.694Z,61.55
2018-04-22T01:40:30.099Z,40.10
2018-04-22T01:42:59.245Z,50.95
2018-04-22T01:45:27.648Z,40.70
2018-04-22T01:47:56.033Z,31.60
2018-04-22T01:50:24.790Z,36.17
2018-04-22T01:52:53.165Z,36.45
2018-04-22T01:55:21.546Z,36.72
2018-04-22T01:57:49.948Z,40.08
2018-04-22T02:00:18.325Z,33.97
2018-04-22T02:02:46.721Z,39.20
2018-04-22T02:05:15.106Z,25.40
2018-04-22T02:07:44.270Z,30.67
2018-04-22T02:10:12.675Z,29.42
2018-04-22T02:12:41.060Z,35.50
2018-04-22T02:15:10.222Z,36.08
2018-04-22T02:17:38.614Z,35.78
2018-04-22T02:20:08.128Z,33.83
2018-04-22T02:22:36.522Z,27.73
2018-04-22T02:25:05.776Z,29.55
2018-04-22T02:27:34.296Z,27.87
2018-04-22T02:30:02.674Z,33.30
2018-04-22T02:32:31.209Z,34.33
2018-04-22T02:34:59.584Z,39.72
2018-04-22T02:37:27.981Z,25.00
2018-04-22T02:39:56.390Z,35.15
2018-04-22T02:42:24.769Z,42.38
2018-04-22T02:44:53.300Z,42.60
2018-04-22T02:47:21.675Z,29.33
2018-04-22T02:49:50.057Z,29.98
2018-04-22T02:52:18.457Z,44.80
2018-04-22T02:54:46.837Z,40.92
2018-04-22T02:57:15.234Z,33.80
2018-04-22T02:59:43.609Z,29.15
2018-04-22T03:02:12.149Z,24.55
2018-04-22T03:04:40.521Z,29.63
2018-04-22T03:07:08.893Z,32.15
2018-04-22T03:09:37.301Z,28.58
2018-04-22T03:12:05.684Z,38.40
2018-04-22T03:14:34.081Z,35.00
2018-04-22T03:17:02.469Z,39.05
2018-04-22T03:19:31.117Z,27.98
2018-04-22T03:21:59.500Z,32.65
2018-04-22T03:24:27.871Z,31.30
2018-04-22T03:26:56.289Z,29.87
2018-04-22T03:29:25.478Z,32.90
2018-04-22T03:31:53.867Z,26.87
2018-04-22T03:34:23.018Z,32.17
2018-04-22T03:36:51.577Z,33.22
2018-04-22T03:39:19.944Z,36.80
2018-04-22T03:41:49.084Z,31.25
2018-04-22T03:44:17.484Z,36.28
2018-04-22T03:46:45.871Z,28.62
2018-04-22T03:49:14.624Z,28.98
2018-04-22T03:51:42.996Z,29.05
2018-04-22T03:54:11.372Z,26.73
2018-04-22T03:56:39.774Z,32.10
2018-04-22T03:59:08.156Z,36.65
2018-04-22T04:01:36.560Z,32.72
2018-04-22T04:04:04.928Z,26.23
2018-04-22T04:06:33.572Z,41.25
2018-04-22T04:09:01.939Z,23.42
2018-04-22T04:11:30.320Z,30.20
2018-04-22T04:13:58.724Z,32.13
2018-04-22T04:16:27.106Z,23.60
2018-04-22T04:19:13.442Z,32.22
2018-04-22T04:21:59.596Z,33.15
2018-04-22T04:27:51.106Z,27.75
2018-04-22T04:30:19.510Z,25.00
2018-04-22T04:32:47.893Z,36.90
2018-04-22T04:35:16.301Z,27.17
2018-04-22T04:37:44.672Z,35.50
2018-04-22T04:40:13.316Z,36.22
2018-04-22T04:42:41.685Z,31.87
2018-04-22T04:45:10.061Z,30.92
2018-04-22T04:47:38.477Z,29.83
2018-04-22T04:50:06.850Z,26.58
2018-04-22T04:52:35.318Z,25.85
2018-04-22T04:55:03.702Z,29.05
2018-04-22T04:57:32.130Z,31.95
2018-04-22T05:00:01.276Z,30.37
2018-04-22T05:02:29.653Z,35.75
2018-04-22T05:04:58.047Z,33.70
2018-04-22T05:07:26.437Z,34.40
2018-04-22T05:09:55.590Z,30.48
2018-04-22T05:12:23.967Z,28.38
2018-04-22T05:14:52.577Z,34.80
2018-04-22T05:17:20.973Z,34.17
2018-04-22T05:19:49.353Z,29.75
2018-04-22T05:22:17.789Z,26.90
2018-04-22T05:24:46.164Z,45.90
2018-04-22T05:27:14.561Z,32.13
2018-04-22T05:29:42.943Z,31.95
2018-04-22T05:32:11.730Z,31.08
2018-04-22T05:34:40.109Z,33.75
2018-04-22T05:37:08.489Z,27.33
2018-04-22T05:39:36.896Z,24.60
2018-04-22T05:42:05.425Z,25.52
2018-04-22T05:44:33.820Z,24.35
2018-04-22T05:47:02.209Z,28.67
2018-04-22T05:49:30.786Z,33.72
2018-04-22T05:51:59.190Z,30.60
2018-04-22T05:54:27.581Z,24.40
2018-04-22T05:56:55.988Z,20.90
2018-04-22T05:59:25.160Z,27.65
2018-04-22T06:01:53.569Z,46.97
2018-04-22T06:04:21.959Z,34.47
2018-04-22T06:06:50.685Z,25.27
2018-04-22T06:09:19.061Z,26.40
2018-04-22T06:11:47.461Z,33.40
2018-04-22T06:14:15.880Z,32.55
2018-04-22T06:16:44.273Z,24.87
2018-04-22T06:19:12.681Z,22.55
2018-04-22T06:21:41.068Z,29.48
2018-04-22T06:24:10.448Z,20.92
2018-04-22T06:26:38.897Z,38.15
2018-04-22T06:29:07.292Z,20.02
2018-04-22T06:31:35.973Z,23.05
2018-04-22T06:34:04.374Z,19.33
2018-04-22T06:36:32.777Z,22.50
2018-04-22T06:39:01.571Z,24.77
2018-04-22T06:41:30.755Z,25.48
2018-04-22T06:43:59.140Z,33.03
2018-04-22T06:46:27.520Z,22.48
2018-04-22T06:48:55.929Z,22.13
2018-04-22T06:51:24.317Z,26.20
2018-04-22T06:53:52.718Z,23.77
2018-04-22T06:56:21.097Z,20.90
2018-04-22T06:58:50.001Z,23.33
2018-04-22T07:01:18.393Z,20.33
2018-04-22T07:03:46.860Z,24.90
2018-04-22T07:06:15.280Z,25.77
2018-04-22T07:08:44.431Z,21.37
2018-04-22T07:11:12.838Z,16.10
2018-04-22T07:13:41.220Z,27.30
2018-04-22T07:16:09.965Z,20.47
2018-04-22T07:18:38.356Z,20.80
2018-04-22T07:21:07.069Z,17.20
2018-04-22T07:23:35.479Z,18.57
2018-04-22T07:26:03.878Z,22.80
2018-04-22T07:28:32.278Z,18.20
2018-04-22T07:31:00.657Z,17.30
2018-04-22T07:33:29.320Z,28.77
2018-04-22T07:35:57.694Z,16.00
2018-04-22T07:38:26.108Z,13.80
2018-04-22T07:40:54.512Z,21.10
2018-04-22T07:43:22.929Z,20.97
2018-04-22T07:45:51.334Z,16.73
2018-04-22T07:48:19.712Z,20.43
2018-04-22T07:50:48.128Z,19.70
2018-04-22T07:53:16.505Z,15.70
2018-04-22T07:55:44.880Z,25.20
2018-04-22T07:58:14.785Z,21.33
2018-04-22T08:00:44.674Z,17.23
2018-04-22T08:03:13.254Z,19.13
2018-04-22T08:05:41.656Z,18.33
2018-04-22T08:08:10.037Z,24.93
2018-04-22T08:10:38.441Z,16.63
2018-04-22T08:13:07.589Z,20.20
2018-04-22T08:15:36.071Z,18.50
2018-04-22T08:18:04.446Z,17.53
2018-04-22T08:20:32.825Z,18.57
2018-04-22T08:23:01.227Z,11.77
2018-04-22T08:25:29.600Z,21.13
2018-04-22T08:27:58.028Z,15.80
2018-04-22T08:30:26.446Z,16.07
2018-04-22T08:32:54.824Z,20.23
2018-04-22T08:35:23.221Z,24.63
2018-04-22T08:37:51.596Z,21.93
2018-04-22T08:40:20.008Z,26.13
2018-04-22T08:42:49.157Z,21.10
2018-04-22T08:45:17.585Z,23.17
2018-04-22T08:47:58.444Z,16.30
2018-04-22T08:50:40.633Z,22.23
2018-04-22T08:53:24.462Z,14.87
2018-04-22T08:55:57.155Z,25.73
2018-04-22T08:58:28.716Z,28.17
2018-04-22T09:00:58.973Z,16.50
2018-04-22T09:03:28.665Z,24.40
2018-04-22T09:06:02.557Z,17.17
2018-04-22T09:08:42.818Z,19.30
2018-04-22T09:11:13.529Z,29.93
2018-04-22T09:13:48.591Z,21.67
2018-04-22T09:16:17.522Z,20.97
2018-04-22T09:18:53.584Z,16.50
2018-04-22T09:21:28.322Z,20.50
2018-04-22T09:23:57.817Z,23.60
2018-04-22T09:26:26.247Z,21.90
2018-04-22T09:28:55.400Z,18.53
2018-04-22T09:31:23.788Z,15.70
2018-04-22T09:33:52.184Z,24.00
2018-04-22T09:36:22.069Z,21.67
2018-04-22T09:38:50.477Z,26.93
2018-04-22T09:41:18.865Z,14.93
2018-04-22T09:43:47.499Z,14.40
2018-04-22T09:46:15.905Z,16.67
2018-04-22T09:48:51.877Z,18.30
2018-04-22T09:51:21.035Z,18.53
2018-04-22T09:53:50.741Z,13.77
2018-04-22T09:56:20.047Z,13.57
2018-04-22T09:58:50.366Z,18.27
2018-04-22T10:01:22.695Z,18.00
2018-04-22T10:03:52.655Z,24.43
2018-04-22T10:06:22.948Z,15.33
2018-04-22T10:08:54.692Z,16.07
2018-04-22T10:11:25.036Z,19.40
2018-04-22T10:13:55.025Z,14.80
2018-04-22T10:16:25.637Z,8.13
2018-04-22T10:18:56.495Z,21.67
2018-04-22T10:21:27.112Z,20.27
2018-04-22T10:24:06.465Z,12.13
2018-04-22T10:26:35.541Z,17.43
2018-04-22T10:29:05.303Z,8.83
2018-04-22T10:31:43.263Z,9.07
2018-04-22T10:34:26.312Z,17.87
2018-04-22T10:36:58.972Z,9.80
2018-04-22T10:39:29.657Z,21.23
2018-04-22T10:42:00.504Z,16.77
2018-04-22T10:44:32.244Z,18.17
2018-04-22T10:47:03.993Z,27.27
2018-04-22T10:49:34.859Z,16.20
2018-04-22T10:52:04.650Z,16.53
2018-04-22T10:54:34.518Z,29.80
2018-04-22T10:57:04.058Z,19.87
2018-04-22T10:59:35.137Z,15.40
2018-04-22T11:02:04.489Z,9.37
2018-04-22T11:04:35.822Z,13.73
2018-04-22T11:07:07.032Z,12.33
2018-04-22T11:09:35.917Z,9.73
2018-04-22T11:12:05.456Z,18.07
2018-04-22T11:14:43.697Z,12.37
2018-04-22T11:17:23.617Z,14.83
2018-04-22T11:20:04.747Z,12.27
2018-04-22T11:22:35.329Z,16.30
2018-04-22T11:25:04.664Z,11.20
2018-04-22T11:27:36.129Z,14.10
2018-04-22T11:30:07.829Z,10.40
2018-04-22T11:32:39.846Z,7.90
2018-04-22T11:35:23.126Z,7.40
2018-04-22T11:37:56.423Z,10.43
2018-04-22T11:40:28.077Z,10.00
2018-04-22T11:43:08.796Z,6.80
2018-04-22T11:45:43.163Z,10.03
2018-04-22T11:48:14.002Z,12.13
2018-04-22T11:50:44.361Z,7.20
2018-04-22T11:53:20.035Z,4.67
2018-04-22T11:55:48.700Z,7.27
2018-04-22T11:58:17.080Z,18.30
2018-04-22T12:00:45.485Z,6.40
2018-04-22T12:03:13.891Z,5.80
2018-04-22T12:05:43.033Z,7.67
2018-04-22T12:08:12.016Z,8.40
2018-04-22T12:10:40.932Z,4.13
2018-04-22T12:13:09.349Z,9.50
2018-04-22T12:15:37.750Z,3.33
2018-04-22T12:18:06.302Z,13.60
2018-04-22T12:20:34.737Z,5.97
2018-04-22T12:23:03.116Z,7.17
2018-04-22T12:25:31.516Z,14.10
2018-04-22T12:27:59.897Z,11.10
2018-04-22T12:30:29.276Z,8.40
2018-04-22T12:32:57.657Z,6.10
2018-04-22T12:35:26.033Z,5.87
2018-04-22T12:37:57.139Z,5.00
2018-04-22T12:40:26.345Z,5.87
2018-04-22T12:42:54.756Z,4.27
2018-04-22T12:45:45.365Z,5.80
2018-04-22T12:48:30.957Z,48.77
2018-04-22T12:51:12.591Z,16.30
2018-04-22T12:53:41.075Z,25.80
2018-04-22T12:56:09.565Z,7.13
2018-04-22T12:58:38.026Z,7.53
2018-04-22T13:01:06.441Z,5.50
2018-04-22T13:03:34.837Z,6.67
2018-04-22T13:06:03.224Z,16.57
2018-04-22T13:08:32.591Z,6.67
2018-04-22T13:11:00.977Z,7.07
2018-04-22T13:13:29.352Z,3.87
2018-04-22T13:15:57.869Z,7.70
2018-04-22T13:18:26.234Z,9.20
2018-04-22T13:20:55.421Z,6.10
2018-04-22T13:23:23.789Z,5.50
2018-04-22T13:25:52.664Z,8.90
2018-04-22T13:28:21.050Z,6.57
2018-04-22T13:30:49.424Z,6.87
2018-04-22T13:33:17.818Z,5.33
2018-04-22T13:35:46.741Z,5.60
2018-04-22T13:38:16.071Z,11.10
2018-04-22T13:40:44.444Z,8.07
2018-04-22T13:43:13.873Z,4.30
2018-04-22T13:45:42.253Z,8.70
2018-04-22T13:48:10.625Z,11.80
2018-04-22T13:50:39.026Z,7.40
2018-04-22T13:53:07.480Z,4.17
2018-04-22T13:55:35.872Z,3.13
2018-04-22T13:58:04.276Z,3.33
2018-04-22T14:00:32.924Z,11.50
2018-04-22T14:03:01.288Z,8.13
2018-04-22T14:05:29.676Z,5.60
2018-04-22T14:07:58.172Z,3.57
2018-04-22T14:10:26.613Z,12.53
2018-04-22T14:12:55.808Z,6.67
2018-04-22T14:15:24.964Z,4.63
2018-04-22T14:17:53.624Z,6.23
2018-04-22T14:20:22.287Z,2.40
2018-04-22T14:22:50.800Z,6.80
2018-04-22T14:25:20.022Z,6.07
2018-04-22T14:27:49.184Z,7.67
2018-04-22T14:30:17.568Z,7.77
2018-04-22T14:32:46.209Z,14.93
2018-04-22T14:35:15.732Z,7.10
2018-04-22T14:37:44.135Z,9.70
2018-04-22T14:40:12.677Z,6.63
2018-04-22T14:42:41.841Z,6.43
2018-04-22T14:45:28.257Z,4.20
2018-04-22T14:47:56.707Z,7.60
2018-04-22T14:50:25.346Z,7.40
2018-04-22T14:52:53.755Z,7.87
2018-04-22T14:55:22.201Z,3.30
2018-04-22T14:57:51.396Z,11.23
2018-04-22T15:00:19.768Z,6.53
2018-04-22T15:02:48.956Z,5.20
2018-04-22T15:05:17.395Z,6.73
2018-04-22T15:07:45.742Z,13.47
2018-04-22T15:10:14.144Z,8.73
2018-04-22T15:12:42.539Z,5.17
2018-04-22T15:15:11.197Z,9.77
2018-04-22T15:17:39.571Z,3.80
2018-04-22T15:20:07.945Z,4.67
2018-04-22T15:22:36.352Z,6.70
2018-04-22T15:25:04.744Z,3.27
2018-04-22T15:27:33.140Z,5.43
2018-04-22T15:30:01.685Z,15.57
2018-04-22T15:32:30.377Z,3.70
2018-04-22T15:34:58.765Z,8.73
2018-04-22T15:37:27.133Z,10.60
2018-04-22T15:39:55.526Z,5.10
2018-04-22T15:42:23.905Z,16.73
2018-04-22T15:44:52.289Z,5.10
2018-04-22T15:47:20.700Z,3.70
2018-04-22T15:49:49.854Z,8.97
2018-04-22T15:52:18.281Z,8.67
2018-04-22T15:54:47.488Z,8.87
2018-04-22T15:57:15.882Z,4.00
2018-04-22T15:59:44.254Z,8.93
2018-04-22T16:02:12.645Z,10.30
2018-04-22T16:04:41.013Z,6.83
2018-04-22T16:07:09.424Z,6.70
2018-04-22T16:09:37.809Z,7.47
2018-04-22T16:12:06.233Z,10.70
2018-04-22T16:14:34.987Z,13.63
2018-04-22T16:17:03.319Z,5.03
2018-04-22T16:19:31.776Z,11.13
2018-04-22T16:22:00.908Z,6.83
2018-04-22T16:24:29.328Z,4.90
2018-04-22T16:26:57.701Z,8.43
2018-04-22T16:29:26.071Z,4.40
2018-04-22T16:31:54.489Z,4.83
2018-04-22T16:34:22.915Z,9.07
2018-04-22T16:36:51.487Z,9.30
2018-04-22T16:39:19.877Z,5.10
2018-04-22T16:41:48.441Z,7.83
2018-04-22T16:44:16.809Z,3.57
2018-04-22T16:46:45.184Z,11.30
2018-04-22T16:49:13.568Z,5.70
2018-04-22T16:51:41.941Z,4.60
2018-04-22T16:54:10.332Z,12.27
2018-04-22T16:56:38.742Z,18.50
2018-04-22T16:59:07.473Z,8.50
2018-04-22T17:01:35.865Z,4.10
2018-04-22T17:04:04.243Z,12.90
2018-04-22T17:06:32.773Z,17.03
2018-04-22T17:09:01.206Z,7.07
2018-04-22T17:11:29.593Z,4.80
2018-04-22T17:13:57.966Z,13.33
2018-04-22T17:16:26.545Z,8.90
2018-04-22T17:18:54.916Z,9.60
2018-04-22T17:21:23.293Z,11.50
2018-04-22T17:23:51.824Z,12.00
2018-04-22T17:26:20.196Z,3.63
2018-04-22T17:28:48.628Z,15.83
2018-04-22T17:31:17.096Z,10.17
2018-04-22T17:33:46.952Z,7.30
2018-04-22T17:36:16.005Z,6.67
2018-04-22T17:38:44.939Z,7.27
2018-04-22T17:41:13.855Z,3.83
2018-04-22T17:43:43.112Z,6.23
2018-04-22T17:46:11.509Z,7.47
2018-04-22T17:48:40.091Z,24.83
2018-04-22T17:51:08.545Z,15.30
2018-04-22T17:53:36.920Z,5.27
2018-04-22T17:56:05.481Z,8.40
2018-04-22T17:58:34.704Z,7.80
2018-04-22T18:01:03.173Z,9.07
2018-04-22T18:03:32.439Z,8.63
2018-04-22T18:06:00.819Z,9.53
2018-04-22T18:08:29.573Z,9.10
2018-04-22T18:10:58.125Z,16.87
2018-04-22T18:13:26.489Z,7.57
2018-04-22T18:15:56.142Z,20.93
2018-04-22T18:18:24.577Z,12.40
2018-04-22T18:20:53.740Z,9.30
2018-04-22T18:23:22.538Z,8.80
2018-04-22T18:25:51.085Z,11.20
2018-04-22T18:28:19.457Z,14.03
2018-04-22T18:30:47.864Z,22.93
2018-04-22T18:33:16.274Z,15.43
2018-04-22T18:35:45.417Z,18.73
2018-04-22T18:38:14.911Z,28.53
2018-04-22T18:40:43.309Z,18.13
2018-04-22T18:43:11.783Z,8.53
2018-04-22T18:45:40.184Z,16.40
2018-04-22T18:48:08.794Z,16.73
2018-04-22T18:50:37.365Z,21.27
2018-04-22T18:53:05.754Z,26.57
2018-04-22T18:55:35.170Z,13.07
2018-04-22T18:58:03.692Z,11.30
2018-04-22T19:00:32.282Z,18.53
2018-04-22T19:03:00.865Z,9.63
2018-04-22T19:05:29.311Z,25.17
2018-04-22T19:07:58.110Z,84.70
2018-04-22T19:10:26.533Z,22.00
2018-04-22T19:12:55.091Z,21.70
2018-04-22T19:15:23.613Z,8.60
2018-04-22T19:17:53.539Z,16.90
2018-04-22T19:20:22.069Z,9.80
2018-04-22T19:22:51.489Z,22.90
2018-04-22T19:25:19.953Z,10.83
2018-04-22T19:27:48.369Z,19.23
2018-04-22T19:30:17.583Z,10.50
2018-04-22T19:32:46.857Z,15.43
2018-04-22T19:35:16.870Z,14.40
2018-04-22T19:37:46.106Z,42.37
2018-04-22T19:40:14.564Z,25.67
2018-04-22T19:42:43.883Z,23.67
2018-04-22T19:45:13.092Z,19.80
2018-04-22T19:47:41.910Z,16.07
2018-04-22T19:50:10.311Z,25.03
2018-04-22T19:52:39.113Z,32.23
2018-04-22T19:55:09.563Z,34.40
2018-04-22T19:57:38.689Z,26.03
2018-04-22T20:00:07.807Z,18.70
2018-04-22T20:02:37.226Z,13.20
2018-04-22T20:05:05.738Z,43.73
2018-04-22T20:07:34.152Z,24.50
2018-04-22T20:10:02.988Z,19.90
2018-04-22T20:12:32.634Z,18.50
2018-04-22T20:15:01.254Z,19.03
2018-04-22T20:17:29.859Z,24.03
2018-04-22T20:19:59.224Z,27.87
2018-04-22T20:22:29.215Z,17.17
2018-04-22T20:24:57.979Z,27.33
2018-04-22T20:27:27.717Z,14.40
2018-04-22T20:29:56.428Z,12.30
2018-04-22T20:32:25.276Z,17.50
2018-04-22T20:34:53.648Z,11.87
2018-04-22T20:37:22.203Z,15.70
2018-04-22T20:39:50.664Z,18.47
2018-04-22T20:42:19.135Z,13.20
2018-04-22T20:44:47.549Z,12.20
2018-04-22T20:47:15.958Z,12.80
2018-04-22T20:49:44.531Z,17.03
2018-04-22T20:52:13.135Z,12.77
2018-04-22T20:54:41.632Z,12.17
2018-04-22T20:57:10.057Z,16.10
2018-04-22T20:59:38.501Z,16.93
2018-04-22T21:02:07.013Z,15.50
2018-04-22T21:04:35.396Z,18.90
2018-04-22T21:07:04.138Z,13.20
2018-04-22T21:09:32.534Z,7.50
2018-04-22T21:12:00.918Z,10.80
2018-04-22T21:14:29.318Z,11.60
2018-04-22T21:16:57.736Z,12.80
2018-04-22T21:19:26.153Z,13.83
2018-04-22T21:21:54.550Z,16.23
2018-04-22T21:24:24.035Z,24.10
2018-04-22T21:26:54.142Z,9.90
2018-04-22T21:29:23.321Z,20.23
2018-04-22T21:31:51.724Z,14.13
2018-04-22T21:34:20.105Z,13.20
2018-04-22T21:36:48.592Z,18.43
2018-04-22T21:39:16.960Z,7.40
2018-04-22T21:41:45.458Z,23.10
2018-04-22T21:44:13.840Z,9.70
2018-04-22T21:46:42.253Z,19.80
2018-04-22T21:49:10.673Z,14.80
2018-04-22T21:51:39.917Z,19.27
2018-04-22T21:54:14.228Z,17.87
2018-04-22T21:56:43.591Z,10.53
2018-04-22T21:59:12.048Z,10.97
2018-04-22T22:01:40.452Z,11.13
2018-04-22T22:04:14.167Z,7.40
2018-04-22T22:06:42.555Z,11.23
2018-04-22T22:09:10.952Z,14.53
2018-04-22T22:11:40.130Z,15.53
2018-04-22T22:14:08.508Z,20.73
2018-04-22T22:16:36.917Z,14.30
2018-04-22T22:19:06.057Z,13.73
2018-04-22T22:21:34.461Z,16.13
2018-04-22T22:24:02.842Z,13.07
2018-04-22T22:26:31.591Z,14.13
2018-04-22T22:29:00.336Z,11.90
2018-04-22T22:31:30.345Z,20.17
2018-04-22T22:33:59.562Z,14.83
2018-04-22T22:36:28.705Z,29.83
2018-04-22T22:38:57.115Z,13.67
2018-04-22T22:41:25.492Z,12.90
2018-04-22T22:43:54.645Z,19.50
2018-04-22T22:46:23.301Z,10.97
2018-04-22T22:48:52.538Z,14.80
2018-04-22T22:51:20.938Z,14.60
2018-04-22T22:53:49.314Z,14.90
2018-04-22T22:56:17.721Z,14.00
2018-04-22T22:58:46.871Z,15.80
2018-04-22T23:01:15.540Z,9.57
2018-04-22T23:03:43.917Z,10.70
2018-04-22T23:06:12.292Z,9.67
2018-04-22T23:08:40.686Z,21.87
2018-04-22T23:11:09.060Z,9.80
2018-04-22T23:13:37.464Z,11.63
2018-04-22T23:16:05.854Z,15.70
2018-04-22T23:18:34.789Z,16.37
2018-04-22T23:21:03.162Z,13.60
2018-04-22T23:23:31.537Z,19.90
2018-04-22T23:26:00.034Z,16.03
2018-04-22T23:28:28.438Z,15.40
2018-04-22T23:30:56.837Z,20.00
2018-04-22T23:33:25.238Z,12.77
2018-04-22T23:35:54.423Z,13.57
2018-04-22T23:38:22.801Z,13.13
2018-04-22T23:40:51.176Z,17.20
2018-04-22T23:43:19.580Z,12.43
2018-04-22T23:45:48.720Z,13.13
2018-04-22T23:48:17.129Z,13.73
2018-04-22T23:50:45.559Z,16.53
2018-04-22T23:53:14.362Z,15.60
2018-04-22T23:55:42.741Z,13.73
2018-04-22T23:58:11.127Z,14.07
